Time;durP1;ratioP1;P1;durP2;ratioP2;P2;SDS_P1;SDS_P2;PMS_P1;PMS_P2;Temp;Humidity;BMP_temperature;BMP_pressure;BME280_temperature;BME280_humidity;BME280_pressure;Samples;Min_cycle;Max_cycle;Signal;HPM_P1;HPM_P2
2023/07/10 00:01:59;;;;;;;24.15;14.75;;;;;;;28.82;55.72;101569.22;4961872;28;20315;-80
2023/07/10 00:04:28;;;;;;;17.27;13.15;;;;;;;28.94;55.98;101590.03;4953789;28;20050;-81
2023/07/10 00:06:55;;;;;;;23.00;13.68;;;;;;;28.90;55.49;101572.41;4933298;28;20078;-81
2023/07/10 00:09:27;;;;;;;22.17;13.25;;;;;;;28.99;55.64;101581.13;4950565;28;20548;-79
2023/07/10 00:11:55;;;;;;;25.27;13.80;;;;;;;29.08;55.48;101578.88;4982408;28;20151;-82
2023/07/10 00:14:24;;;;;;;25.48;13.40;;;;;;;28.64;55.65;101529.13;4957161;28;20045;-79
2023/07/10 00:16:52;;;;;;;22.45;13.70;;;;;;;28.57;55.67;101517.47;4926556;28;20464;-80
2023/07/10 00:19:19;;;;;;;19.08;14.10;;;;;;;28.90;55.68;101574.31;4939637;28;20048;-81
2023/07/10 00:21:50;;;;;;;23.00;13.15;;;;;;;28.68;55.89;101553.00;4941509;28;20459;-80
2023/07/10 00:24:17;;;;;;;24.02;13.02;;;;;;;28.89;55.73;101586.34;4969033;28;20053;-81
2023/07/10 00:26:45;;;;;;;33.42;12.98;;;;;;;28.54;55.43;101524.22;4920082;28;20104;-81
2023/07/10 00:29:22;;;;;;;23.73;13.27;;;;;;;28.78;55.57;101557.91;4923651;28;20857;-81
2023/07/10 00:31:53;;;;;;;25.27;14.13;;;;;;;28.79;55.57;101564.19;4934581;28;20130;-81
2023/07/10 00:34:25;;;;;;;;;;;;;;;28.84;55.95;101578.00;4947736;28;20041;-81
2023/07/10 00:36:53;;;;;;;20.13;13.85;;;;;;;28.80;55.75;101585.81;4967937;28;19926;-80
2023/07/10 00:39:22;;;;;;;19.92;13.45;;;;;;;28.87;55.40;101589.28;4934714;28;20101;-79
2023/07/10 00:42:01;;;;;;;22.77;13.35;;;;;;;28.93;55.57;101588.38;4936152;28;20053;-80
2023/07/10 00:44:53;;;;;;;21.88;12.32;;;;;;;28.50;55.75;101523.06;4951927;28;20356;-80
2023/07/10 00:47:36;;;;;;;25.63;13.10;;;;;;;28.73;55.68;101560.50;4962161;28;20448;-81
2023/07/10 00:50:24;;;;;;;18.35;12.85;;;;;;;28.79;55.78;101577.84;4972669;28;20397;-80
2023/07/10 00:52:53;;;;;;;16.63;12.60;;;;;;;28.75;55.65;101581.06;4950061;28;20049;-80
2023/07/10 00:55:31;;;;;;;25.63;13.13;;;;;;;28.67;56.28;101580.59;4963799;28;20145;-79
2023/07/10 00:58:12;;;;;;;19.67;12.52;;;;;;;28.77;56.58;101589.88;4945336;28;20056;-80
2023/07/10 01:01:15;;;;;;;17.95;12.93;;;;;;;28.75;56.14;101586.53;4954011;28;20109;-82
2023/07/10 01:03:46;;;;;;;16.67;12.35;;;;;;;28.38;56.29;101524.91;4941867;28;20061;-80
2023/07/10 01:06:31;;;;;;;25.00;12.90;;;;;;;28.71;55.96;101585.31;4958802;28;20433;-79
2023/07/10 01:09:10;;;;;;;17.98;13.27;;;;;;;28.61;56.00;101565.13;4929067;28;20549;-79
2023/07/10 01:11:43;;;;;;;20.00;13.07;;;;;;;28.61;56.06;101570.56;4946075;28;20096;-81
2023/07/10 01:14:10;;;;;;;17.38;13.13;;;;;;;28.55;56.31;101575.09;4939471;28;20289;-81
2023/07/10 01:16:38;;;;;;;19.67;13.57;;;;;;;28.60;56.31;101594.34;4967340;28;20445;-79
2023/07/10 01:19:14;;;;;;;21.35;13.45;;;;;;;28.24;56.69;101541.44;4959685;28;20042;-80
2023/07/10 01:21:41;;;;;;;19.02;13.30;;;;;;;28.59;56.92;101592.66;4977247;28;20073;-81
2023/07/10 01:24:08;;;;;;;19.35;12.60;;;;;;;28.51;56.87;101587.53;4943578;28;20365;-80
2023/07/10 01:26:40;;;;;;;22.15;12.98;;;;;;;28.54;56.73;101592.50;4957696;28;20077;-79
2023/07/10 01:29:27;;;;;;;22.80;12.88;;;;;;;28.27;56.99;101540.16;4958059;28;20565;-82
2023/07/10 01:31:55;;;;;;;21.40;12.38;;;;;;;28.55;56.75;101588.75;4961351;28;20104;-79
2023/07/10 01:34:27;;;;;;;17.77;11.70;;;;;;;28.13;56.83;101539.50;4946598;28;20922;-81
2023/07/10 01:36:56;;;;;;;20.40;13.20;;;;;;;28.48;56.71;101586.09;4935428;28;20058;-80
2023/07/10 01:39:40;;;;;;;24.05;12.50;;;;;;;28.47;56.66;101586.31;4943406;28;20486;-83
2023/07/10 01:42:07;;;;;;;17.42;12.60;;;;;;;28.41;56.68;101585.31;4925653;28;20054;-80
2023/07/10 01:44:37;;;;;;;22.15;12.63;;;;;;;28.34;56.86;101585.41;4949918;28;20054;-80
2023/07/10 01:47:07;;;;;;;21.08;13.23;;;;;;;28.05;56.95;101545.28;4959334;28;20501;-82
2023/07/10 01:49:46;;;;;;;24.27;12.38;;;;;;;28.24;57.31;101584.31;4970758;28;20058;-80
2023/07/10 01:52:16;;;;;;;19.98;13.43;;;;;;;28.21;57.45;101588.31;4943507;28;20057;-81
2023/07/10 01:54:47;;;;;;;19.60;13.00;;;;;;;28.02;57.49;101553.94;4951686;28;20249;-82
2023/07/10 01:57:17;;;;;;;24.00;12.93;;;;;;;28.19;56.92;101582.25;4982147;28;20458;-79
2023/07/10 01:59:48;;;;;;;17.48;12.32;;;;;;;28.25;57.04;101586.78;4959859;28;20046;-82
2023/07/10 02:02:15;;;;;;;20.88;11.45;;;;;;;27.94;56.70;101546.03;4943061;28;20357;-80
2023/07/10 02:04:47;;;;;;;20.02;13.25;;;;;;;27.80;56.93;101521.63;4923152;28;20381;-81
2023/07/10 02:07:15;;;;;;;22.15;13.25;;;;;;;28.07;56.92;101579.47;4947602;28;20058;-80
2023/07/10 02:09:42;;;;;;;18.08;12.63;;;;;;;28.06;57.05;101582.41;4950958;28;20053;-81
2023/07/10 02:12:09;;;;;;;16.25;11.82;;;;;;;27.78;57.01;101523.75;4951054;28;20097;-82
2023/07/10 02:14:36;;;;;;;20.30;13.65;;;;;;;28.02;57.46;101575.78;4950489;28;20054;-81
2023/07/10 02:17:05;;;;;;;23.10;12.30;;;;;;;28.00;57.44;101572.44;4941828;28;20084;-81
2023/07/10 02:19:35;;;;;;;20.45;12.82;;;;;;;28.00;57.34;101566.97;4956415;28;20556;-82
2023/07/10 02:22:02;;;;;;;18.95;11.90;;;;;;;27.60;57.30;101497.34;4947488;28;20058;-80
2023/07/10 02:24:29;;;;;;;23.27;13.40;;;;;;;27.95;57.68;101564.94;4940409;28;20436;-80
2023/07/10 02:26:56;;;;;;;24.45;13.40;;;;;;;27.95;57.61;101569.56;4956928;28;20042;-80
2023/07/10 02:29:23;;;;;;;19.63;12.77;;;;;;;27.64;57.72;101522.25;4944382;28;20057;-80
2023/07/10 02:31:50;;;;;;;19.20;12.27;;;;;;;27.64;58.14;101524.97;4930193;28;20226;-80
2023/07/10 02:34:20;;;;;;;20.88;12.27;;;;;;;27.80;58.03;101546.19;4920773;28;20038;-82
2023/07/10 02:36:47;;;;;;;22.67;12.02;;;;;;;27.70;58.23;101535.81;4934339;28;20046;-81
2023/07/10 02:39:14;;;;;;;23.20;12.80;;;;;;;27.79;58.38;101549.97;4935807;28;20133;-81
2023/07/10 02:41:41;;;;;;;22.90;13.00;;;;;;;27.68;58.72;101548.00;4950326;28;20143;-79
2023/07/10 02:44:08;;;;;;;21.00;12.82;;;;;;;27.59;59.05;101527.56;4969283;28;20049;-79
2023/07/10 02:46:35;;;;;;;18.83;12.95;;;;;;;27.74;58.87;101558.00;4955427;28;20076;-80
2023/07/10 02:49:02;;;;;;;25.75;13.10;;;;;;;27.27;59.02;101478.63;4963304;28;20599;-80
2023/07/10 02:51:29;;;;;;;18.23;13.00;;;;;;;27.54;58.90;101530.13;4964974;28;20054;-81
2023/07/10 02:53:55;;;;;;;18.30;13.50;;;;;;;27.47;59.19;101533.75;4964702;28;20045;-81
2023/07/10 02:56:22;;;;;;;20.17;13.43;;;;;;;27.67;59.14;101566.28;4967370;28;20141;-81
2023/07/10 02:58:52;;;;;;;18.30;12.38;;;;;;;27.65;59.17;101560.22;4954484;28;20501;-79
2023/07/10 03:01:25;;;;;;;16.13;12.20;;;;;;;27.66;59.19;101566.50;4966183;28;20141;-80
2023/07/10 03:03:53;;;;;;;23.95;12.15;;;;;;;27.12;58.48;101476.22;4975635;28;20042;-80
2023/07/10 03:06:22;;;;;;;19.00;11.77;;;;;;;27.42;58.34;101533.59;4959447;28;20409;-80
2023/07/10 03:08:49;;;;;;;27.52;12.15;;;;;;;27.54;58.17;101569.13;4932423;28;20485;-81
2023/07/10 03:11:16;;;;;;;16.20;10.77;;;;;;;27.57;58.49;101563.22;4941395;28;20310;-80
2023/07/10 03:13:46;;;;;;;19.58;12.30;;;;;;;27.45;58.60;101552.25;4924998;28;20046;-81
2023/07/10 03:16:15;;;;;;;20.77;13.40;;;;;;;27.18;58.32;101515.38;4954305;28;20387;-80
2023/07/10 03:18:46;;;;;;;17.17;12.00;;;;;;;27.51;58.40;101558.69;4952164;28;20469;-83
2023/07/10 03:21:13;;;;;;;19.50;12.35;;;;;;;27.38;58.29;101551.50;4960269;28;20046;-80
2023/07/10 03:23:45;;;;;;;17.85;12.20;;;;;;;27.51;58.20;101566.03;4968414;28;20066;-82
2023/07/10 03:26:12;;;;;;;16.98;12.07;;;;;;;27.49;57.95;101572.53;4940771;28;20462;-82
2023/07/10 03:28:38;;;;;;;15.98;11.82;;;;;;;27.48;58.33;101570.06;4937092;28;20054;-80
2023/07/10 03:31:06;;;;;;;17.63;11.65;;;;;;;27.42;58.34;101566.31;4934136;28;20046;-80
2023/07/10 03:33:36;;;;;;;24.67;12.40;;;;;;;27.44;58.15;101577.84;4941894;28;20104;-82
2023/07/10 03:36:06;;;;;;;19.65;12.13;;;;;;;27.37;58.17;101574.34;4920379;28;20043;-80
2023/07/10 03:38:34;;;;;;;30.42;13.77;;;;;;;27.35;58.58;101565.53;4920862;28;20358;-81
2023/07/10 03:41:01;;;;;;;18.23;12.80;;;;;;;27.47;59.16;101580.09;4919039;28;20066;-81
2023/07/10 03:43:28;;;;;;;22.27;12.98;;;;;;;27.51;59.40;101590.59;4920748;28;20053;-81
2023/07/10 03:45:56;;;;;;;24.10;13.23;;;;;;;27.51;58.96;101596.88;4912431;28;20134;-80
2023/07/10 03:48:24;;;;;;;25.33;14.30;;;;;;;27.52;59.62;101601.25;4930531;28;20278;-81
2023/07/10 03:50:51;;;;;;;18.92;13.77;;;;;;;27.49;59.34;101609.88;4905343;28;20069;-81
2023/07/10 03:53:17;;;;;;;19.50;13.38;;;;;;;27.39;58.62;101585.88;4916032;28;20054;-82
2023/07/10 03:55:54;;;;;;;18.65;11.52;;;;;;;27.47;57.85;101591.00;4930510;28;20270;-79
2023/07/10 03:58:23;;;;;;;18.48;12.25;;;;;;;27.53;58.16;101583.84;4930778;28;20050;-82
2023/07/10 04:00:55;;;;;;;14.63;10.63;;;;;;;27.62;57.31;101598.00;4938182;28;20767;-82
2023/07/10 04:03:28;;;;;;;16.52;12.30;;;;;;;27.62;56.65;101592.53;4949651;28;20145;-80
2023/07/10 04:05:58;;;;;;;17.20;11.50;;;;;;;27.43;56.66;101557.09;4908701;28;20426;-81
2023/07/10 04:08:33;;;;;;;16.05;11.80;;;;;;;27.72;56.60;101587.44;4948128;28;20046;-83
2023/07/10 04:11:03;;;;;;;18.95;11.77;;;;;;;27.77;56.23;101603.09;4948569;28;20555;-82
2023/07/10 04:13:31;;;;;;;20.85;11.93;;;;;;;27.75;56.22;101597.88;4919261;28;20303;-80
2023/07/10 04:16:02;;;;;;;14.95;11.35;;;;;;;27.74;56.73;101600.81;4925017;28;20747;-80
2023/07/10 04:18:36;;;;;;;21.50;12.40;;;;;;;27.38;56.55;101547.91;4932519;28;20058;-81
2023/07/10 04:21:06;;;;;;;15.63;11.05;;;;;;;27.65;56.61;101581.22;4940804;28;20108;-80
2023/07/10 04:23:37;;;;;;;23.73;11.25;;;;;;;27.44;56.42;101552.47;4957653;28;20364;-82
2023/07/10 04:26:06;;;;;;;23.08;11.50;;;;;;;27.54;56.91;101573.75;4971431;28;20057;-81
2023/07/10 04:28:33;;;;;;;15.98;11.23;;;;;;;27.68;56.68;101603.41;4958981;28;20613;-80
2023/07/10 04:30:59;;;;;;;23.38;10.98;;;;;;;27.48;57.17;101573.59;4963272;28;20328;-81
2023/07/10 04:33:26;;;;;;;22.17;12.35;;;;;;;27.76;57.17;101610.44;4955705;28;20332;-81
2023/07/10 04:35:55;;;;;;;21.00;11.93;;;;;;;27.71;57.45;101592.03;4921433;28;20101;-82
2023/07/10 04:38:25;;;;;;;20.35;12.05;;;;;;;27.79;57.31;101587.31;4910014;28;20078;-79
2023/07/10 04:41:04;;;;;;;17.75;11.25;;;;;;;27.49;57.02;101541.72;4940565;28;20042;-80
2023/07/10 04:43:33;;;;;;;17.73;12.52;;;;;;;27.88;58.14;101616.84;4945421;28;20050;-81
2023/07/10 04:46:04;;;;;;;23.17;13.23;;;;;;;27.90;58.01;101611.16;4943109;28;20064;-81
2023/07/10 04:48:34;;;;;;;17.40;12.88;;;;;;;27.70;58.49;101586.81;4991342;28;20507;-81
2023/07/10 04:51:07;;;;;;;19.92;12.80;;;;;;;27.46;58.28;101556.63;4970504;28;20522;-82
2023/07/10 04:53:34;;;;;;;23.90;13.27;;;;;;;27.82;58.48;101623.22;4968677;28;20046;-80
2023/07/10 04:56:04;;;;;;;24.92;14.95;;;;;;;26.77;58.65;101430.44;4941199;28;20142;-80
2023/07/10 04:58:50;;;;;;;29.20;14.35;;;;;;;27.94;58.49;101623.31;4970178;28;20050;-79
2023/07/10 05:01:23;;;;;;;27.52;14.25;;;;;;;27.73;58.77;101583.63;4959198;28;20049;-81
2023/07/10 05:03:51;;;;;;;17.98;13.10;;;;;;;27.87;58.33;101585.19;4955486;28;20053;-82
2023/07/10 05:06:18;;;;;;;30.63;14.55;;;;;;;28.02;58.00;101616.72;4940239;28;20964;-80
2023/07/10 05:08:46;;;;;;;16.17;13.63;;;;;;;28.09;57.60;101592.91;4953182;28;20058;-81
2023/07/10 05:11:13;;;;;;;23.85;13.68;;;;;;;28.23;57.81;101616.25;4944406;28;20046;-80
2023/07/10 05:13:40;;;;;;;28.08;14.77;;;;;;;28.28;57.64;101616.38;4957175;28;20128;-80
2023/07/10 05:16:07;;;;;;;27.48;14.75;;;;;;;28.33;57.45;101630.16;4967465;28;20050;-82
2023/07/10 05:18:34;;;;;;;22.02;12.80;;;;;;;28.34;57.68;101622.81;4968453;28;20407;-82
2023/07/10 05:21:02;;;;;;;24.20;14.27;;;;;;;27.87;57.69;101546.16;4955276;28;20337;-81
2023/07/10 05:23:35;;;;;;;24.58;15.48;;;;;;;28.20;57.35;101604.94;4953832;28;20569;-81
2023/07/10 05:26:14;;;;;;;22.77;14.25;;;;;;;28.37;57.72;101635.16;4974453;28;20561;-80
2023/07/10 05:28:42;;;;;;;25.17;14.35;;;;;;;28.49;58.03;101630.63;4952562;28;20046;-81
2023/07/10 05:31:10;;;;;;;31.85;14.05;;;;;;;28.26;57.11;101580.28;4956543;28;20105;-81
2023/07/10 05:33:38;;;;;;;23.00;12.18;;;;;;;28.60;55.93;101635.31;4956359;28;20398;-79
2023/07/10 05:36:10;;;;;;;18.92;11.77;;;;;;;28.56;54.81;101631.38;4948853;28;20426;-81
2023/07/10 05:38:41;;;;;;;25.17;12.23;;;;;;;28.40;54.66;101604.66;4944936;28;20522;-79
2023/07/10 05:41:08;;;;;;;25.17;12.75;;;;;;;28.79;54.30;101655.22;4958191;28;20133;-80
2023/07/10 05:43:36;;;;;;;22.02;11.10;;;;;;;28.76;54.44;101640.13;4957667;28;20051;-81
2023/07/10 05:46:03;;;;;;;22.10;11.40;;;;;;;28.80;53.56;101637.75;4967542;28;20446;-80
2023/07/10 05:48:33;;;;;;;19.52;10.88;;;;;;;28.93;53.75;101643.03;4943092;28;20062;-83
2023/07/10 05:51:03;;;;;;;22.75;11.18;;;;;;;28.99;52.54;101638.50;4957775;28;20263;-81
2023/07/10 05:53:33;;;;;;;19.33;11.52;;;;;;;29.04;51.94;101644.09;4954211;28;20045;-80
2023/07/10 05:56:02;;;;;;;18.00;11.73;;;;;;;28.10;51.26;101479.91;4950588;28;20046;-80
2023/07/10 05:58:31;;;;;;;15.82;10.75;;;;;;;29.14;51.51;101654.50;4932257;28;20049;-79
2023/07/10 06:00:59;;;;;;;23.85;11.52;;;;;;;29.11;51.75;101650.34;4954050;28;20183;-82
2023/07/10 06:03:30;;;;;;;20.10;10.93;;;;;;;28.92;52.12;101629.59;4968975;28;20065;-80
2023/07/10 06:06:04;;;;;;;20.88;11.52;;;;;;;29.04;52.60;101641.38;4941437;28;20046;-79
2023/07/10 06:08:33;;;;;;;26.50;13.02;;;;;;;29.18;52.66;101662.00;4961228;28;20319;-80
2023/07/10 06:11:00;;;;;;;21.10;12.80;;;;;;;29.25;51.97;101644.63;4948836;28;20130;-81
2023/07/10 06:13:27;;;;;;;29.05;12.90;;;;;;;29.05;51.10;101607.50;4933236;28;20157;-81
2023/07/10 06:15:56;;;;;;;18.50;11.95;;;;;;;29.34;51.27;101655.00;4925100;28;20694;-82
2023/07/10 06:18:24;;;;;;;17.85;11.88;;;;;;;29.09;51.47;101606.00;4953987;28;20432;-81
2023/07/10 06:20:53;;;;;;;26.35;12.52;;;;;;;29.29;51.49;101657.59;4945160;28;20061;-82
2023/07/10 06:23:21;;;;;;;15.55;11.15;;;;;;;29.10;51.62;101615.84;4962382;28;20046;-80
2023/07/10 06:25:49;;;;;;;18.55;12.13;;;;;;;29.32;51.75;101650.84;4959070;28;20442;-80
2023/07/10 06:28:21;;;;;;;22.80;13.20;;;;;;;29.42;50.96;101656.56;4956928;28;20049;-82
2023/07/10 06:31:01;;;;;;;21.52;12.30;;;;;;;29.29;51.60;101640.38;4957543;28;20318;-81
2023/07/10 06:33:30;;;;;;;20.92;12.68;;;;;;;29.22;51.40;101625.97;4946576;28;20050;-81
2023/07/10 06:36:00;;;;;;;25.58;12.52;;;;;;;29.15;51.12;101610.53;4928898;28;20046;-82
2023/07/10 06:38:31;;;;;;;22.67;13.75;;;;;;;29.23;51.40;101614.81;4967853;28;20054;-80
2023/07/10 06:40:58;;;;;;;19.20;13.27;;;;;;;29.17;51.83;101627.50;4935410;28;20050;-81
2023/07/10 06:43:26;;;;;;;22.48;13.65;;;;;;;29.54;51.08;101662.88;4921911;28;20093;-82
2023/07/10 06:45:57;;;;;;;21.63;14.23;;;;;;;29.18;51.27;101607.31;4928843;28;20047;-80
2023/07/10 06:48:39;;;;;;;21.52;14.07;;;;;;;29.57;50.68;101662.41;4932866;28;20704;-81
2023/07/10 06:51:06;;;;;;;18.90;12.50;;;;;;;29.58;51.61;101649.53;4930201;28;20415;-81
2023/07/10 06:53:34;;;;;;;26.70;14.23;;;;;;;29.39;51.08;101619.56;4958343;28;20046;-81
2023/07/10 06:56:05;;;;;;;27.38;15.43;;;;;;;29.72;50.75;101650.19;4940128;28;20318;-82
2023/07/10 06:58:34;;;;;;;23.52;13.50;;;;;;;29.74;51.39;101664.47;4922742;28;20393;-81
2023/07/10 07:01:06;;;;;;;24.63;14.27;;;;;;;29.71;50.58;101659.44;4906844;28;20143;-81
2023/07/10 07:03:40;;;;;;;23.20;14.40;;;;;;;29.72;51.08;101664.69;4919099;28;20050;-79
2023/07/10 07:06:07;;;;;;;19.77;14.13;;;;;;;29.32;50.97;101596.13;4942460;28;20042;-82
2023/07/10 07:08:35;;;;;;;28.25;14.57;;;;;;;29.78;51.09;101666.47;4946506;28;20445;-81
2023/07/10 07:11:02;;;;;;;26.58;14.55;;;;;;;29.85;50.20;101658.13;4934339;28;20050;-82
2023/07/10 07:13:29;;;;;;;21.98;14.25;;;;;;;29.75;51.24;101664.19;4965176;28;20054;-81
2023/07/10 07:15:56;;;;;;;27.85;13.73;;;;;;;29.77;51.34;101664.78;4944794;28;20049;-81
2023/07/10 07:18:24;;;;;;;24.88;15.55;;;;;;;29.90;50.87;101660.97;4990174;28;20089;-81
2023/07/10 07:20:55;;;;;;;26.35;15.70;;;;;;;29.99;50.51;101667.75;4972045;28;20062;-80
2023/07/10 07:23:22;;;;;;;25.63;15.60;;;;;;;29.99;50.57;101659.53;4952057;28;20485;-83
2023/07/10 07:25:49;;;;;;;33.95;15.90;;;;;;;29.77;51.09;101620.19;4957140;28;20097;-82
2023/07/10 07:28:16;;;;;;;23.48;15.88;;;;;;;29.92;50.10;101628.72;4952248;28;20045;-81
2023/07/10 07:30:47;;;;;;;23.40;13.48;;;;;;;29.88;51.21;101637.66;4962934;28;20159;-81
2023/07/10 07:33:19;;;;;;;20.60;13.13;;;;;;;30.21;50.85;101659.72;4974071;28;20537;-81
2023/07/10 07:35:46;;;;;;;24.50;14.23;;;;;;;29.89;51.28;101640.16;4918558;28;20103;-82
2023/07/10 07:38:14;;;;;;;21.63;13.73;;;;;;;29.73;51.20;101602.56;4923232;28;20046;-81
2023/07/10 07:40:40;;;;;;;23.23;13.88;;;;;;;29.87;51.82;101625.88;4952608;28;20155;-79
2023/07/10 07:43:08;;;;;;;22.33;13.20;;;;;;;30.20;51.42;101657.25;4970993;28;20056;-80
2023/07/10 07:45:35;;;;;;;19.30;14.02;;;;;;;30.01;51.73;101638.22;4962283;28;20124;-81
2023/07/10 07:48:02;;;;;;;25.02;14.43;;;;;;;30.24;50.79;101650.19;4957825;28;20121;-79
2023/07/10 07:50:29;;;;;;;19.10;12.98;;;;;;;30.34;50.87;101652.34;4959304;28;20482;-80
2023/07/10 07:52:57;;;;;;;19.38;12.57;;;;;;;30.38;51.31;101645.31;4952096;28;20056;-81
2023/07/10 07:55:24;;;;;;;32.35;16.27;;;;;;;30.31;51.04;101642.69;4940543;28;20446;-81
2023/07/10 07:57:50;;;;;;;20.10;12.73;;;;;;;30.57;51.16;101651.44;4990428;28;20116;-80
2023/07/10 08:00:17;;;;;;;16.80;13.13;;;;;;;30.45;50.98;101652.28;4973926;28;20065;-81
2023/07/10 08:02:49;;;;;;;24.80;14.77;;;;;;;30.65;50.86;101653.75;4965096;28;20058;-81
2023/07/10 08:05:18;;;;;;;19.50;13.57;;;;;;;30.65;49.77;101648.28;4942383;28;20053;-82
2023/07/10 08:08:04;;;;;;;21.35;14.30;;;;;;;30.69;49.81;101643.97;4925499;28;20623;-80
2023/07/10 08:10:38;;;;;;;19.88;14.60;;;;;;;30.59;49.84;101617.22;4952720;28;20133;-81
2023/07/10 08:13:08;;;;;;;25.27;14.35;;;;;;;30.47;49.87;101591.78;4957072;28;20050;-81
2023/07/10 08:15:39;;;;;;;21.95;14.07;;;;;;;30.56;49.52;101606.75;4937519;28;20093;-80
2023/07/10 08:18:10;;;;;;;21.88;15.18;;;;;;;30.75;49.48;101631.19;4963199;28;20525;-81
2023/07/10 08:20:37;;;;;;;28.25;13.95;;;;;;;30.78;49.71;101631.56;4955728;28;20058;-79
2023/07/10 08:23:04;;;;;;;23.10;14.63;;;;;;;30.60;49.43;101618.06;4943016;28;20241;-80
2023/07/10 08:25:33;;;;;;;28.63;14.68;;;;;;;30.79;49.11;101635.13;4960191;28;20058;-81
2023/07/10 08:28:00;;;;;;;25.90;15.18;;;;;;;30.70;49.20;101601.78;4951091;28;20062;-78
2023/07/10 08:30:28;;;;;;;20.08;12.75;;;;;;;30.85;50.08;101637.75;4923731;28;20074;-80
2023/07/10 08:32:55;;;;;;;18.90;12.70;;;;;;;30.66;50.30;101595.16;4922449;28;20442;-81
2023/07/10 08:35:23;;;;;;;24.02;13.32;;;;;;;30.60;50.41;101590.66;4947962;28;20495;-79
2023/07/10 08:37:51;;;;;;;20.52;14.73;;;;;;;30.93;49.94;101632.94;4930960;28;20062;-81
2023/07/10 08:40:31;;;;;;;18.25;13.23;;;;;;;31.20;49.72;101636.69;4938926;28;20498;-81
2023/07/10 08:43:21;;;;;;;21.27;13.48;;;;;;;31.00;49.80;101603.44;4932833;28;20101;-79
2023/07/10 08:45:49;;;;;;;20.30;13.00;;;;;;;31.36;49.19;101637.72;4942953;28;20431;-80
2023/07/10 08:48:44;;;;;;;21.80;14.15;;;;;;;31.25;48.90;101636.75;4969641;28;20049;-81
2023/07/10 08:51:20;;;;;;;32.53;15.93;;;;;;;31.17;48.22;101639.06;4896382;28;20047;-80
2023/07/10 08:54:10;;;;;;;23.67;13.55;;;;;;;31.14;48.68;101637.66;4949109;28;20062;-80
2023/07/10 08:56:47;;;;;;;24.10;15.60;;;;;;;31.19;48.13;101636.91;4953697;28;20072;-81
2023/07/10 08:59:38;;;;;;;24.90;15.60;;;;;;;31.43;48.26;101632.09;4943629;28;20050;-81
2023/07/10 09:02:17;;;;;;;25.15;16.08;;;;;;;31.54;48.10;101628.44;4922287;28;20061;-80
2023/07/10 09:04:49;;;;;;;20.70;14.68;;;;;;;31.59;48.65;101636.75;4959115;28;20042;-80
2023/07/10 09:07:18;;;;;;;21.30;14.18;;;;;;;31.50;48.47;101619.03;4934908;28;20502;-80
2023/07/10 09:09:55;;;;;;;25.55;15.75;;;;;;;31.39;48.48;101603.50;4940564;28;20061;-81
2023/07/10 09:12:30;;;;;;;24.83;14.52;;;;;;;31.44;48.98;101623.63;4954514;28;20577;-80
2023/07/10 09:15:02;;;;;;;27.67;16.63;;;;;;;31.50;48.89;101616.31;4955736;28;20074;-82
2023/07/10 09:17:34;;;;;;;32.58;16.50;;;;;;;31.64;48.06;101617.59;4965018;28;20571;-82
2023/07/10 09:20:05;;;;;;;28.00;16.50;;;;;;;31.83;47.26;101631.06;4941440;28;20061;-82
2023/07/10 09:22:37;;;;;;;31.33;16.63;;;;;;;31.89;47.12;101610.81;4952570;28;20046;-80
2023/07/10 09:25:15;;;;;;;24.67;15.20;;;;;;;31.89;46.79;101597.06;4959945;28;20043;-80
2023/07/10 09:27:45;;;;;;;30.00;17.35;;;;;;;32.10;46.55;101612.75;4967292;28;20047;-80
2023/07/10 09:30:31;;;;;;;29.10;15.23;;;;;;;32.04;47.13;101611.03;4945977;28;20242;-80
2023/07/10 09:33:03;;;;;;;20.92;15.10;;;;;;;31.59;47.45;101565.41;4953476;28;20133;-79
2023/07/10 09:35:31;;;;;;;47.30;16.70;;;;;;;31.97;47.72;101615.91;4927723;28;20160;-81
2023/07/10 09:37:57;;;;;;;28.60;15.85;;;;;;;31.89;48.17;101619.84;4936993;28;20078;-81
2023/07/10 09:40:37;;;;;;;38.55;19.13;;;;;;;32.12;47.25;101598.78;4952485;28;20046;-80
2023/07/10 09:43:20;;;;;;;27.67;15.55;;;;;;;32.39;46.53;101606.22;4923148;28;20161;-79
2023/07/10 09:45:52;;;;;;;44.05;18.92;;;;;;;32.34;45.83;101579.50;4932786;28;20611;-81
2023/07/10 09:48:34;;;;;;;32.30;17.92;;;;;;;32.63;45.41;101607.59;4941282;28;20219;-82
2023/07/10 09:51:10;;;;;;;27.58;16.70;;;;;;;32.50;45.83;101553.03;4931615;28;20502;-81
2023/07/10 09:53:46;;;;;;;26.52;14.02;;;;;;;31.59;46.04;101450.13;4938601;28;20175;-80
2023/07/10 09:56:24;;;;;;;30.73;16.23;;;;;;;32.19;46.74;101584.81;4951450;28;20042;-81
2023/07/10 09:58:56;;;;;;;24.15;14.70;;;;;;;31.68;47.20;101508.16;4945143;28;20038;-80
2023/07/10 10:01:27;;;;;;;25.25;14.48;;;;;;;31.95;46.73;101549.41;4953905;28;20047;-81
2023/07/10 10:03:54;;;;;;;;;;;;;;;31.95;47.54;101592.53;4953666;28;20294;-80
2023/07/10 10:06:24;;;;;;;21.70;15.38;;;;;;;31.71;47.92;101574.34;4942432;28;20471;-79
2023/07/10 10:08:52;;;;;;;28.50;14.85;;;;;;;32.23;46.52;101592.28;4955241;28;20454;-81
2023/07/10 10:11:31;;;;;;;23.05;14.02;;;;;;;32.09;46.49;101567.16;4955188;28;20046;-80
2023/07/10 10:14:02;;;;;;;25.08;14.70;;;;;;;31.21;46.63;101440.84;4924132;28;20050;-80
2023/07/10 10:16:35;;;;;;;24.65;15.15;;;;;;;31.73;47.57;101601.53;4946747;28;20050;-81
2023/07/10 10:19:30;;;;;;;28.98;16.10;;;;;;;31.39;47.95;101534.91;4952611;28;20100;-81
2023/07/10 10:21:57;;;;;;;27.70;15.65;;;;;;;31.99;47.31;101591.72;4948288;28;20444;-80
2023/07/10 10:24:27;;;;;;;29.00;15.60;;;;;;;31.86;46.86;101548.16;4934190;28;20050;-80
2023/07/10 10:27:31;;;;;;;27.73;15.50;;;;;;;31.86;47.17;101581.13;4966672;28;20042;-79
2023/07/10 10:30:19;;;;;;;23.23;15.98;;;;;;;31.49;48.39;101589.97;4964645;28;20439;-79
2023/07/10 10:32:55;;;;;;;23.45;16.65;;;;;;;31.20;48.65;101581.81;4933498;28;20054;-80
2023/07/10 10:35:31;;;;;;;25.02;15.95;;;;;;;30.72;49.32;101531.13;4944834;28;20046;-80
2023/07/10 10:38:21;;;;;;;29.50;17.05;;;;;;;30.90;49.74;101567.63;4945312;28;20303;-81
2023/07/10 10:41:06;;;;;;;25.38;17.15;;;;;;;30.74;49.99;101581.03;4941406;28;20441;-81
2023/07/10 10:43:41;;;;;;;26.25;16.30;;;;;;;31.02;49.91;101571.09;4942260;28;20154;-80
2023/07/10 10:46:36;;;;;;;26.35;17.00;;;;;;;31.33;49.32;101566.09;4952226;28;20053;-80
2023/07/10 10:49:35;;;;;;;33.13;18.13;;;;;;;31.34;48.53;101527.44;4937644;28;20045;-80
2023/07/10 10:52:09;;;;;;;27.27;17.63;;;;;;;32.08;47.92;101562.75;4941936;28;20092;-81
2023/07/10 10:54:56;;;;;;;29.15;17.40;;;;;;;32.33;46.70;101515.50;4963994;28;20088;-81
2023/07/10 10:57:54;;;;;;;24.17;17.23;;;;;;;32.60;46.21;101557.78;4952213;28;20140;-79
2023/07/10 11:00:23;;;;;;;23.65;17.92;;;;;;;33.12;44.99;101560.72;4954931;28;20483;-79
2023/07/10 11:03:22;;;;;;;31.92;17.63;;;;;;;33.11;45.14;101508.72;4974616;28;20895;-81
2023/07/10 11:05:56;;;;;;;24.55;15.45;;;;;;;33.34;43.96;101533.06;4945675;28;20104;-82
2023/07/10 11:08:32;;;;;;;22.67;15.13;;;;;;;32.81;45.36;101548.63;4960912;28;20049;-80
2023/07/10 11:11:04;;;;;;;23.55;15.88;;;;;;;32.39;46.54;101530.09;4959012;28;20386;-81
2023/07/10 11:13:37;;;;;;;24.73;16.80;;;;;;;32.65;45.65;101539.44;4962413;28;20104;-80
2023/07/10 11:16:10;;;;;;;20.20;15.75;;;;;;;32.46;45.70;101514.22;4972709;28;20089;-81
2023/07/10 11:18:38;;;;;;;18.98;16.65;;;;;;;32.50;46.33;101531.91;4952297;28;20061;-80
2023/07/10 11:21:08;;;;;;;27.00;17.55;;;;;;;32.13;46.50;101482.31;4955155;28;20050;-81
2023/07/10 11:23:41;;;;;;;21.47;16.83;;;;;;;32.46;45.97;101481.25;4956635;28;20081;-80
2023/07/10 11:26:09;;;;;;;27.42;16.25;;;;;;;33.00;44.88;101514.13;4961220;28;20042;-81
2023/07/10 11:28:38;;;;;;;23.77;16.10;;;;;;;32.81;45.33;101510.13;4964306;28;20480;-80
2023/07/10 11:31:32;;;;;;;20.05;16.92;;;;;;;32.70;45.45;101524.91;4975557;28;20480;-82